aviador You're here:

KMGJ Decoded Metar

MONTGOMERY in NY, USA
Report Time2018-01-22 10:54:00
UTC Time2018-01-22 11:58:51
Flight Rules ifr IFR
WindCalm
Visibility2414 m
Phenomena:Light Rain
Mist
Clouds:Overcast 017 Hf
Ceiling1,700 ft
Temp01°C (ISA -13)
Dew Point01°C (100% RH)
AAT-0.8°C
QNH1020 hPa
Density Alt-1,414 ft
Elevation354 ft
Report Wrong Elevation
Raw Report
KMGJ 221054Z AUTO 00000KT 1 1/2SM -RA BR OVC017 01/01 A3012 RMK
AO2 RAB40 SLP203 P0000 T00110006=

Extra information for KMGJ:More info

Metar Taf Metar & Taf Last 4 Metars F.Rules Stats Wind Profile Meteogram Temp Stats Airport Information Weather charts Add Link Nearby VenuesMetar ALERT Operation Metar Decoded Social comments

AIRNAV info for KMGJ